sensor_id;sensor_type;location;lat;lon;timestamp;P1;durP1;ratioP1;P2;durP2;ratioP2
36663;SDS011;53333;51.976;20.144;2024-03-02T00:01:01;29.70;;;18.07;;
36663;SDS011;53333;51.976;20.144;2024-03-02T00:03:36;32.53;;;18.73;;
36663;SDS011;53333;51.976;20.144;2024-03-02T00:06:09;30.58;;;19.13;;
36663;SDS011;53333;51.976;20.144;2024-03-02T00:08:45;30.67;;;19.80;;
36663;SDS011;53333;51.976;20.144;2024-03-02T00:11:18;33.38;;;19.10;;
36663;SDS011;53333;51.976;20.144;2024-03-02T00:13:52;33.20;;;19.48;;
36663;SDS011;53333;51.976;20.144;2024-03-02T00:16:28;31.80;;;18.30;;
36663;SDS011;53333;51.976;20.144;2024-03-02T00:19:02;33.28;;;19.80;;
36663;SDS011;53333;51.976;20.144;2024-03-02T00:21:37;38.83;;;19.80;;
36663;SDS011;53333;51.976;20.144;2024-03-02T00:24:18;35.03;;;19.48;;
36663;SDS011;53333;51.976;20.144;2024-03-02T00:26:53;30.58;;;18.92;;
36663;SDS011;53333;51.976;20.144;2024-03-02T00:29:26;27.93;;;17.33;;
36663;SDS011;53333;51.976;20.144;2024-03-02T00:32:01;31.60;;;19.20;;
36663;SDS011;53333;51.976;20.144;2024-03-02T00:34:35;33.35;;;20.58;;
36663;SDS011;53333;51.976;20.144;2024-03-02T00:37:08;31.17;;;18.33;;
36663;SDS011;53333;51.976;20.144;2024-03-02T00:39:43;31.25;;;18.48;;
36663;SDS011;53333;51.976;20.144;2024-03-02T00:42:21;30.65;;;17.92;;
36663;SDS011;53333;51.976;20.144;2024-03-02T00:44:56;31.13;;;18.42;;
36663;SDS011;53333;51.976;20.144;2024-03-02T00:47:29;33.37;;;19.43;;
36663;SDS011;53333;51.976;20.144;2024-03-02T00:50:02;32.37;;;19.70;;
36663;SDS011;53333;51.976;20.144;2024-03-02T00:52:46;30.80;;;18.10;;
36663;SDS011;53333;51.976;20.144;2024-03-02T00:55:21;30.60;;;18.88;;
36663;SDS011;53333;51.976;20.144;2024-03-02T00:57:54;31.95;;;17.90;;
36663;SDS011;53333;51.976;20.144;2024-03-02T01:00:27;26.58;;;17.90;;
36663;SDS011;53333;51.976;20.144;2024-03-02T01:03:00;28.13;;;17.85;;
36663;SDS011;53333;51.976;20.144;2024-03-02T01:05:35;28.20;;;16.90;;
36663;SDS011;53333;51.976;20.144;2024-03-02T01:08:08;32.05;;;18.35;;
36663;SDS011;53333;51.976;20.144;2024-03-02T01:10:43;31.17;;;17.17;;
36663;SDS011;53333;51.976;20.144;2024-03-02T01:13:16;31.40;;;18.40;;
36663;SDS011;53333;51.976;20.144;2024-03-02T01:15:49;33.25;;;18.30;;
36663;SDS011;53333;51.976;20.144;2024-03-02T01:18:22;29.67;;;17.42;;
36663;SDS011;53333;51.976;20.144;2024-03-02T01:20:58;32.20;;;18.15;;
36663;SDS011;53333;51.976;20.144;2024-03-02T01:23:33;27.45;;;16.02;;
36663;SDS011;53333;51.976;20.144;2024-03-02T01:26:08;32.20;;;18.35;;
36663;SDS011;53333;51.976;20.144;2024-03-02T01:28:44;32.08;;;17.88;;
36663;SDS011;53333;51.976;20.144;2024-03-02T01:31:18;29.83;;;18.23;;
36663;SDS011;53333;51.976;20.144;2024-03-02T01:33:50;28.20;;;16.80;;
36663;SDS011;53333;51.976;20.144;2024-03-02T01:36:23;31.23;;;18.25;;
36663;SDS011;53333;51.976;20.144;2024-03-02T01:38:57;27.02;;;16.85;;
36663;SDS011;53333;51.976;20.144;2024-03-02T01:41:34;32.10;;;17.30;;
36663;SDS011;53333;51.976;20.144;2024-03-02T01:44:07;29.73;;;17.92;;
36663;SDS011;53333;51.976;20.144;2024-03-02T01:46:40;30.20;;;17.40;;
36663;SDS011;53333;51.976;20.144;2024-03-02T01:49:13;30.20;;;17.43;;
36663;SDS011;53333;51.976;20.144;2024-03-02T01:51:46;32.87;;;18.63;;
36663;SDS011;53333;51.976;20.144;2024-03-02T01:54:19;34.25;;;18.83;;
36663;SDS011;53333;51.976;20.144;2024-03-02T01:56:57;32.42;;;18.73;;
36663;SDS011;53333;51.976;20.144;2024-03-02T01:59:30;31.05;;;18.40;;
36663;SDS011;53333;51.976;20.144;2024-03-02T02:02:03;26.90;;;17.23;;
36663;SDS011;53333;51.976;20.144;2024-03-02T02:04:36;29.73;;;18.42;;
36663;SDS011;53333;51.976;20.144;2024-03-02T02:07:09;30.13;;;17.43;;
36663;SDS011;53333;51.976;20.144;2024-03-02T02:09:42;31.08;;;19.23;;
36663;SDS011;53333;51.976;20.144;2024-03-02T02:12:17;28.42;;;17.83;;
36663;SDS011;53333;51.976;20.144;2024-03-02T02:14:50;34.55;;;17.83;;
36663;SDS011;53333;51.976;20.144;2024-03-02T02:17:23;32.97;;;18.25;;
36663;SDS011;53333;51.976;20.144;2024-03-02T02:19:56;33.42;;;17.95;;
36663;SDS011;53333;51.976;20.144;2024-03-02T02:22:30;31.17;;;19.57;;
36663;SDS011;53333;51.976;20.144;2024-03-02T02:25:04;31.20;;;18.77;;
36663;SDS011;53333;51.976;20.144;2024-03-02T02:30:13;31.25;;;17.50;;
36663;SDS011;53333;51.976;20.144;2024-03-02T02:32:50;29.92;;;18.15;;
36663;SDS011;53333;51.976;20.144;2024-03-02T02:35:23;31.02;;;19.05;;
36663;SDS011;53333;51.976;20.144;2024-03-02T02:37:58;28.77;;;17.60;;
36663;SDS011;53333;51.976;20.144;2024-03-02T02:40:31;29.40;;;17.75;;
36663;SDS011;53333;51.976;20.144;2024-03-02T02:43:04;33.78;;;19.00;;
36663;SDS011;53333;51.976;20.144;2024-03-02T02:45:38;30.45;;;18.13;;
36663;SDS011;53333;51.976;20.144;2024-03-02T02:48:11;31.85;;;18.98;;
36663;SDS011;53333;51.976;20.144;2024-03-02T02:50:44;33.67;;;19.60;;
36663;SDS011;53333;51.976;20.144;2024-03-02T02:53:19;34.03;;;19.47;;
36663;SDS011;53333;51.976;20.144;2024-03-02T02:55:51;35.22;;;19.05;;
36663;SDS011;53333;51.976;20.144;2024-03-02T02:58:24;31.00;;;19.47;;
36663;SDS011;53333;51.976;20.144;2024-03-02T03:00:57;34.17;;;19.73;;
36663;SDS011;53333;51.976;20.144;2024-03-02T03:03:31;33.88;;;18.60;;
36663;SDS011;53333;51.976;20.144;2024-03-02T03:06:04;34.35;;;20.13;;
36663;SDS011;53333;51.976;20.144;2024-03-02T03:08:38;27.23;;;17.25;;
36663;SDS011;53333;51.976;20.144;2024-03-02T03:11:11;34.28;;;18.63;;
36663;SDS011;53333;51.976;20.144;2024-03-02T03:13:44;32.40;;;18.80;;
36663;SDS011;53333;51.976;20.144;2024-03-02T03:16:17;32.95;;;17.75;;
36663;SDS011;53333;51.976;20.144;2024-03-02T03:18:52;31.20;;;18.77;;
36663;SDS011;53333;51.976;20.144;2024-03-02T03:21:25;32.70;;;19.60;;
36663;SDS011;53333;51.976;20.144;2024-03-02T03:24:00;32.70;;;18.80;;
36663;SDS011;53333;51.976;20.144;2024-03-02T03:26:35;30.77;;;18.90;;
36663;SDS011;53333;51.976;20.144;2024-03-02T03:29:08;34.65;;;18.73;;
36663;SDS011;53333;51.976;20.144;2024-03-02T03:31:41;31.92;;;18.45;;
36663;SDS011;53333;51.976;20.144;2024-03-02T03:34:14;32.03;;;18.27;;
36663;SDS011;53333;51.976;20.144;2024-03-02T03:36:47;34.58;;;18.75;;
36663;SDS011;53333;51.976;20.144;2024-03-02T03:39:22;32.15;;;17.63;;
36663;SDS011;53333;51.976;20.144;2024-03-02T03:41:55;33.40;;;18.73;;
36663;SDS011;53333;51.976;20.144;2024-03-02T03:44:28;29.70;;;17.95;;
36663;SDS011;53333;51.976;20.144;2024-03-02T03:47:01;34.83;;;18.83;;
36663;SDS011;53333;51.976;20.144;2024-03-02T03:49:34;29.53;;;18.03;;
36663;SDS011;53333;51.976;20.144;2024-03-02T03:52:07;32.03;;;19.17;;
36663;SDS011;53333;51.976;20.144;2024-03-02T03:54:44;33.95;;;19.80;;
36663;SDS011;53333;51.976;20.144;2024-03-02T03:57:17;28.85;;;19.08;;
36663;SDS011;53333;51.976;20.144;2024-03-02T03:59:50;33.30;;;19.50;;
36663;SDS011;53333;51.976;20.144;2024-03-02T04:02:23;34.07;;;18.13;;
36663;SDS011;53333;51.976;20.144;2024-03-02T04:05:00;31.50;;;18.23;;
36663;SDS011;53333;51.976;20.144;2024-03-02T04:07:36;36.45;;;19.55;;
36663;SDS011;53333;51.976;20.144;2024-03-02T04:10:13;35.78;;;19.73;;
36663;SDS011;53333;51.976;20.144;2024-03-02T04:12:49;33.35;;;18.85;;
36663;SDS011;53333;51.976;20.144;2024-03-02T04:15:21;33.60;;;19.23;;
36663;SDS011;53333;51.976;20.144;2024-03-02T04:17:55;31.75;;;18.98;;
36663;SDS011;53333;51.976;20.144;2024-03-02T04:20:28;31.63;;;19.40;;
36663;SDS011;53333;51.976;20.144;2024-03-02T04:25:36;30.45;;;18.25;;
36663;SDS011;53333;51.976;20.144;2024-03-02T04:28:09;33.63;;;19.58;;
36663;SDS011;53333;51.976;20.144;2024-03-02T04:30:43;35.22;;;20.25;;
36663;SDS011;53333;51.976;20.144;2024-03-02T04:33:16;32.63;;;19.13;;
36663;SDS011;53333;51.976;20.144;2024-03-02T04:35:49;36.92;;;20.73;;
36663;SDS011;53333;51.976;20.144;2024-03-02T04:38:22;42.27;;;20.13;;
36663;SDS011;53333;51.976;20.144;2024-03-02T04:40:56;41.35;;;23.10;;
36663;SDS011;53333;51.976;20.144;2024-03-02T04:43:29;64.03;;;33.40;;
36663;SDS011;53333;51.976;20.144;2024-03-02T04:46:03;122.78;;;59.72;;
36663;SDS011;53333;51.976;20.144;2024-03-02T04:48:37;96.00;;;51.97;;
36663;SDS011;53333;51.976;20.144;2024-03-02T04:51:10;51.70;;;28.77;;
36663;SDS011;53333;51.976;20.144;2024-03-02T04:53:44;49.60;;;30.58;;
36663;SDS011;53333;51.976;20.144;2024-03-02T04:56:19;89.10;;;48.37;;
36663;SDS011;53333;51.976;20.144;2024-03-02T04:59:10;84.07;;;51.38;;
36663;SDS011;53333;51.976;20.144;2024-03-02T05:01:44;75.93;;;45.28;;
36663;SDS011;53333;51.976;20.144;2024-03-02T05:04:18;51.95;;;29.58;;
36663;SDS011;53333;51.976;20.144;2024-03-02T05:06:52;64.38;;;36.05;;
36663;SDS011;53333;51.976;20.144;2024-03-02T05:09:27;44.10;;;25.67;;
36663;SDS011;53333;51.976;20.144;2024-03-02T05:12:02;50.35;;;25.73;;
36663;SDS011;53333;51.976;20.144;2024-03-02T05:14:54;41.30;;;23.33;;
36663;SDS011;53333;51.976;20.144;2024-03-02T05:17:28;49.80;;;28.52;;
36663;SDS011;53333;51.976;20.144;2024-03-02T05:20:01;47.37;;;28.50;;
36663;SDS011;53333;51.976;20.144;2024-03-02T05:22:35;75.93;;;36.90;;
36663;SDS011;53333;51.976;20.144;2024-03-02T05:25:09;47.03;;;25.83;;
36663;SDS011;53333;51.976;20.144;2024-03-02T05:27:43;40.35;;;22.25;;
36663;SDS011;53333;51.976;20.144;2024-03-02T05:30:17;38.75;;;21.20;;
36663;SDS011;53333;51.976;20.144;2024-03-02T05:32:51;40.20;;;20.42;;
36663;SDS011;53333;51.976;20.144;2024-03-02T05:35:23;40.58;;;23.55;;
36663;SDS011;53333;51.976;20.144;2024-03-02T05:37:56;38.13;;;21.63;;
36663;SDS011;53333;51.976;20.144;2024-03-02T05:40:30;40.78;;;22.83;;
36663;SDS011;53333;51.976;20.144;2024-03-02T05:43:04;36.70;;;21.53;;
36663;SDS011;53333;51.976;20.144;2024-03-02T05:45:37;39.13;;;21.85;;
36663;SDS011;53333;51.976;20.144;2024-03-02T05:48:11;38.50;;;21.08;;
36663;SDS011;53333;51.976;20.144;2024-03-02T05:50:44;36.73;;;21.07;;
36663;SDS011;53333;51.976;20.144;2024-03-02T05:53:16;39.63;;;23.87;;
36663;SDS011;53333;51.976;20.144;2024-03-02T05:55:49;41.58;;;24.20;;
36663;SDS011;53333;51.976;20.144;2024-03-02T05:58:26;44.92;;;23.52;;
36663;SDS011;53333;51.976;20.144;2024-03-02T06:01:09;46.63;;;28.35;;
36663;SDS011;53333;51.976;20.144;2024-03-02T06:03:42;47.13;;;28.60;;
36663;SDS011;53333;51.976;20.144;2024-03-02T06:06:15;39.38;;;22.17;;
36663;SDS011;53333;51.976;20.144;2024-03-02T06:08:48;38.90;;;23.05;;
36663;SDS011;53333;51.976;20.144;2024-03-02T06:11:21;46.22;;;25.30;;
36663;SDS011;53333;51.976;20.144;2024-03-02T06:13:56;47.13;;;23.00;;
36663;SDS011;53333;51.976;20.144;2024-03-02T06:16:29;43.80;;;23.33;;
36663;SDS011;53333;51.976;20.144;2024-03-02T06:19:02;43.20;;;22.23;;
36663;SDS011;53333;51.976;20.144;2024-03-02T06:21:35;37.78;;;21.90;;
36663;SDS011;53333;51.976;20.144;2024-03-02T06:24:08;43.13;;;22.57;;
36663;SDS011;53333;51.976;20.144;2024-03-02T06:26:41;46.10;;;24.00;;
36663;SDS011;53333;51.976;20.144;2024-03-02T06:29:15;45.13;;;23.70;;
36663;SDS011;53333;51.976;20.144;2024-03-02T06:31:48;41.13;;;22.80;;
36663;SDS011;53333;51.976;20.144;2024-03-02T06:34:25;44.75;;;22.27;;
36663;SDS011;53333;51.976;20.144;2024-03-02T06:36:58;47.28;;;24.90;;
36663;SDS011;53333;51.976;20.144;2024-03-02T06:39:31;41.40;;;23.85;;
36663;SDS011;53333;51.976;20.144;2024-03-02T06:42:05;45.63;;;23.10;;
36663;SDS011;53333;51.976;20.144;2024-03-02T06:44:42;45.40;;;23.60;;
36663;SDS011;53333;51.976;20.144;2024-03-02T06:47:15;43.92;;;22.58;;
36663;SDS011;53333;51.976;20.144;2024-03-02T06:52:22;47.03;;;23.98;;
36663;SDS011;53333;51.976;20.144;2024-03-02T06:54:55;48.13;;;23.65;;
36663;SDS011;53333;51.976;20.144;2024-03-02T06:57:28;47.05;;;24.23;;
36663;SDS011;53333;51.976;20.144;2024-03-02T07:00:03;49.10;;;25.67;;
36663;SDS011;53333;51.976;20.144;2024-03-02T07:02:41;52.53;;;26.13;;
36663;SDS011;53333;51.976;20.144;2024-03-02T07:05:14;51.20;;;26.03;;
36663;SDS011;53333;51.976;20.144;2024-03-02T07:07:47;46.30;;;25.40;;
36663;SDS011;53333;51.976;20.144;2024-03-02T07:10:20;50.47;;;27.48;;
36663;SDS011;53333;51.976;20.144;2024-03-02T07:12:54;55.42;;;26.42;;
36663;SDS011;53333;51.976;20.144;2024-03-02T07:15:28;49.72;;;25.75;;
36663;SDS011;53333;51.976;20.144;2024-03-02T07:18:15;53.50;;;26.42;;
36663;SDS011;53333;51.976;20.144;2024-03-02T07:20:48;52.47;;;26.33;;
36663;SDS011;53333;51.976;20.144;2024-03-02T07:23:21;50.40;;;26.30;;
36663;SDS011;53333;51.976;20.144;2024-03-02T07:25:58;49.05;;;27.98;;
36663;SDS011;53333;51.976;20.144;2024-03-02T07:28:36;51.88;;;26.10;;
36663;SDS011;53333;51.976;20.144;2024-03-02T07:31:11;48.28;;;26.08;;
36663;SDS011;53333;51.976;20.144;2024-03-02T07:33:44;49.85;;;25.70;;
36663;SDS011;53333;51.976;20.144;2024-03-02T07:36:18;48.88;;;25.63;;
36663;SDS011;53333;51.976;20.144;2024-03-02T07:41:26;49.63;;;24.92;;
36663;SDS011;53333;51.976;20.144;2024-03-02T07:43:59;51.92;;;25.25;;
36663;SDS011;53333;51.976;20.144;2024-03-02T07:46:36;52.67;;;25.75;;
36663;SDS011;53333;51.976;20.144;2024-03-02T07:49:09;50.58;;;26.83;;
36663;SDS011;53333;51.976;20.144;2024-03-02T07:51:42;45.60;;;24.52;;
36663;SDS011;53333;51.976;20.144;2024-03-02T07:54:16;51.38;;;27.90;;
36663;SDS011;53333;51.976;20.144;2024-03-02T07:56:49;51.92;;;27.25;;
36663;SDS011;53333;51.976;20.144;2024-03-02T07:59:22;57.63;;;30.00;;
36663;SDS011;53333;51.976;20.144;2024-03-02T08:01:56;70.70;;;37.33;;
36663;SDS011;53333;51.976;20.144;2024-03-02T08:04:30;56.33;;;30.58;;
36663;SDS011;53333;51.976;20.144;2024-03-02T08:07:03;53.78;;;30.08;;
36663;SDS011;53333;51.976;20.144;2024-03-02T08:12:09;54.45;;;29.90;;
36663;SDS011;53333;51.976;20.144;2024-03-02T08:14:42;56.00;;;28.75;;
36663;SDS011;53333;51.976;20.144;2024-03-02T08:17:17;55.70;;;29.35;;
36663;SDS011;53333;51.976;20.144;2024-03-02T08:19:50;51.05;;;27.92;;
36663;SDS011;53333;51.976;20.144;2024-03-02T08:22:23;55.67;;;30.02;;
36663;SDS011;53333;51.976;20.144;2024-03-02T08:24:58;58.13;;;31.85;;
36663;SDS011;53333;51.976;20.144;2024-03-02T08:27:32;58.95;;;30.75;;
36663;SDS011;53333;51.976;20.144;2024-03-02T08:30:05;62.80;;;32.47;;
36663;SDS011;53333;51.976;20.144;2024-03-02T08:32:42;61.17;;;32.72;;
36663;SDS011;53333;51.976;20.144;2024-03-02T08:35:15;62.92;;;32.25;;
36663;SDS011;53333;51.976;20.144;2024-03-02T08:37:48;60.38;;;31.20;;
36663;SDS011;53333;51.976;20.144;2024-03-02T08:40:21;50.17;;;27.05;;
36663;SDS011;53333;51.976;20.144;2024-03-02T08:42:55;59.13;;;31.23;;
36663;SDS011;53333;51.976;20.144;2024-03-02T08:45:29;54.03;;;27.77;;
36663;SDS011;53333;51.976;20.144;2024-03-02T08:48:04;54.00;;;29.35;;
36663;SDS011;53333;51.976;20.144;2024-03-02T08:50:37;57.97;;;30.50;;
36663;SDS011;53333;51.976;20.144;2024-03-02T08:53:10;58.40;;;31.00;;
36663;SDS011;53333;51.976;20.144;2024-03-02T08:55:43;60.30;;;29.67;;
36663;SDS011;53333;51.976;20.144;2024-03-02T08:58:17;62.70;;;29.50;;
36663;SDS011;53333;51.976;20.144;2024-03-02T09:00:50;52.80;;;28.25;;
36663;SDS011;53333;51.976;20.144;2024-03-02T09:03:24;56.25;;;30.08;;
36663;SDS011;53333;51.976;20.144;2024-03-02T09:05:57;63.30;;;30.42;;
36663;SDS011;53333;51.976;20.144;2024-03-02T09:08:30;58.60;;;29.52;;
36663;SDS011;53333;51.976;20.144;2024-03-02T09:11:03;59.10;;;30.30;;
36663;SDS011;53333;51.976;20.144;2024-03-02T09:13:37;61.53;;;31.02;;
36663;SDS011;53333;51.976;20.144;2024-03-02T09:16:10;62.45;;;30.98;;
36663;SDS011;53333;51.976;20.144;2024-03-02T09:18:45;64.50;;;31.90;;
36663;SDS011;53333;51.976;20.144;2024-03-02T09:21:18;61.03;;;32.53;;
36663;SDS011;53333;51.976;20.144;2024-03-02T09:23:54;64.03;;;32.28;;
36663;SDS011;53333;51.976;20.144;2024-03-02T09:26:27;68.63;;;32.07;;
36663;SDS011;53333;51.976;20.144;2024-03-02T09:29:00;65.33;;;32.43;;
36663;SDS011;53333;51.976;20.144;2024-03-02T09:31:38;70.30;;;33.55;;
36663;SDS011;53333;51.976;20.144;2024-03-02T09:34:13;68.28;;;32.30;;
36663;SDS011;53333;51.976;20.144;2024-03-02T09:36:47;73.03;;;35.08;;
36663;SDS011;53333;51.976;20.144;2024-03-02T09:39:20;74.22;;;35.92;;
36663;SDS011;53333;51.976;20.144;2024-03-02T09:41:54;68.15;;;33.22;;
36663;SDS011;53333;51.976;20.144;2024-03-02T09:44:31;79.18;;;40.17;;
36663;SDS011;53333;51.976;20.144;2024-03-02T09:47:07;70.78;;;34.67;;
36663;SDS011;53333;51.976;20.144;2024-03-02T09:49:42;74.28;;;34.22;;
36663;SDS011;53333;51.976;20.144;2024-03-02T09:52:19;71.28;;;34.80;;
36663;SDS011;53333;51.976;20.144;2024-03-02T09:55:07;73.53;;;36.35;;
36663;SDS011;53333;51.976;20.144;2024-03-02T09:57:44;72.28;;;33.22;;
36663;SDS011;53333;51.976;20.144;2024-03-02T10:00:23;78.05;;;36.40;;
36663;SDS011;53333;51.976;20.144;2024-03-02T10:05:35;79.97;;;37.38;;
36663;SDS011;53333;51.976;20.144;2024-03-02T10:08:10;78.40;;;38.22;;
36663;SDS011;53333;51.976;20.144;2024-03-02T10:10:58;78.57;;;37.30;;
36663;SDS011;53333;51.976;20.144;2024-03-02T10:13:32;81.70;;;38.63;;
36663;SDS011;53333;51.976;20.144;2024-03-02T10:16:11;83.90;;;39.92;;
36663;SDS011;53333;51.976;20.144;2024-03-02T10:18:44;82.85;;;38.90;;
36663;SDS011;53333;51.976;20.144;2024-03-02T10:21:19;85.32;;;40.85;;
36663;SDS011;53333;51.976;20.144;2024-03-02T10:23:52;86.32;;;42.20;;
36663;SDS011;53333;51.976;20.144;2024-03-02T10:26:25;90.07;;;39.67;;
36663;SDS011;53333;51.976;20.144;2024-03-02T10:28:58;88.03;;;41.90;;
36663;SDS011;53333;51.976;20.144;2024-03-02T10:31:31;85.97;;;39.35;;
36663;SDS011;53333;51.976;20.144;2024-03-02T10:34:05;84.95;;;40.40;;
36663;SDS011;53333;51.976;20.144;2024-03-02T10:36:41;98.55;;;45.55;;
36663;SDS011;53333;51.976;20.144;2024-03-02T10:39:16;94.15;;;43.53;;
36663;SDS011;53333;51.976;20.144;2024-03-02T10:41:50;97.55;;;43.63;;
36663;SDS011;53333;51.976;20.144;2024-03-02T10:44:25;98.97;;;44.33;;
36663;SDS011;53333;51.976;20.144;2024-03-02T10:49:33;95.22;;;41.88;;
36663;SDS011;53333;51.976;20.144;2024-03-02T10:52:07;88.35;;;40.15;;
36663;SDS011;53333;51.976;20.144;2024-03-02T10:54:41;83.43;;;40.50;;
36663;SDS011;53333;51.976;20.144;2024-03-02T10:59:52;87.97;;;41.28;;
36663;SDS011;53333;51.976;20.144;2024-03-02T11:02:29;84.78;;;38.72;;
36663;SDS011;53333;51.976;20.144;2024-03-02T11:05:04;92.75;;;40.63;;
36663;SDS011;53333;51.976;20.144;2024-03-02T11:07:41;89.35;;;37.72;;
36663;SDS011;53333;51.976;20.144;2024-03-02T11:10:15;89.40;;;39.85;;
36663;SDS011;53333;51.976;20.144;2024-03-02T11:15:25;85.13;;;39.03;;
36663;SDS011;53333;51.976;20.144;2024-03-02T11:18:00;91.72;;;42.60;;
36663;SDS011;53333;51.976;20.144;2024-03-02T11:20:35;92.70;;;41.72;;
36663;SDS011;53333;51.976;20.144;2024-03-02T11:23:12;94.97;;;44.22;;
36663;SDS011;53333;51.976;20.144;2024-03-02T11:25:45;103.13;;;44.17;;
36663;SDS011;53333;51.976;20.144;2024-03-02T11:28:19;98.40;;;42.33;;
36663;SDS011;53333;51.976;20.144;2024-03-02T11:31:08;95.03;;;40.60;;
36663;SDS011;53333;51.976;20.144;2024-03-02T11:33:41;98.70;;;44.03;;
36663;SDS011;53333;51.976;20.144;2024-03-02T11:36:14;91.32;;;43.78;;
36663;SDS011;53333;51.976;20.144;2024-03-02T11:38:50;96.63;;;44.83;;
36663;SDS011;53333;51.976;20.144;2024-03-02T11:41:25;104.22;;;45.15;;
36663;SDS011;53333;51.976;20.144;2024-03-02T11:43:59;96.00;;;43.10;;
36663;SDS011;53333;51.976;20.144;2024-03-02T11:46:32;101.30;;;44.90;;
36663;SDS011;53333;51.976;20.144;2024-03-02T11:49:06;112.18;;;49.38;;
36663;SDS011;53333;51.976;20.144;2024-03-02T11:51:39;111.13;;;48.30;;
36663;SDS011;53333;51.976;20.144;2024-03-02T11:54:27;107.35;;;44.63;;
36663;SDS011;53333;51.976;20.144;2024-03-02T11:57:06;108.28;;;48.92;;
36663;SDS011;53333;51.976;20.144;2024-03-02T11:59:39;109.40;;;48.45;;
36663;SDS011;53333;51.976;20.144;2024-03-02T12:02:14;103.70;;;47.90;;
36663;SDS011;53333;51.976;20.144;2024-03-02T12:04:49;98.50;;;45.22;;
36663;SDS011;53333;51.976;20.144;2024-03-02T12:07:23;104.30;;;50.03;;
36663;SDS011;53333;51.976;20.144;2024-03-02T12:10:00;110.82;;;49.60;;
36663;SDS011;53333;51.976;20.144;2024-03-02T12:12:35;104.35;;;47.63;;
36663;SDS011;53333;51.976;20.144;2024-03-02T12:15:10;102.70;;;43.72;;
36663;SDS011;53333;51.976;20.144;2024-03-02T12:17:44;103.45;;;45.50;;
36663;SDS011;53333;51.976;20.144;2024-03-02T12:20:17;113.43;;;48.33;;
36663;SDS011;53333;51.976;20.144;2024-03-02T12:22:50;100.80;;;45.33;;
36663;SDS011;53333;51.976;20.144;2024-03-02T12:25:28;101.78;;;48.20;;
36663;SDS011;53333;51.976;20.144;2024-03-02T12:28:02;101.38;;;45.05;;
36663;SDS011;53333;51.976;20.144;2024-03-02T12:30:35;104.43;;;47.50;;
36663;SDS011;53333;51.976;20.144;2024-03-02T12:33:10;105.30;;;46.88;;
36663;SDS011;53333;51.976;20.144;2024-03-02T12:35:43;101.65;;;46.25;;
36663;SDS011;53333;51.976;20.144;2024-03-02T12:38:17;103.80;;;47.70;;
36663;SDS011;53333;51.976;20.144;2024-03-02T12:40:52;108.38;;;47.45;;
36663;SDS011;53333;51.976;20.144;2024-03-02T12:43:29;108.10;;;50.20;;
36663;SDS011;53333;51.976;20.144;2024-03-02T12:46:03;98.43;;;47.15;;
36663;SDS011;53333;51.976;20.144;2024-03-02T12:48:36;98.80;;;44.28;;
36663;SDS011;53333;51.976;20.144;2024-03-02T12:51:12;98.55;;;45.35;;
36663;SDS011;53333;51.976;20.144;2024-03-02T12:53:45;99.15;;;44.85;;
36663;SDS011;53333;51.976;20.144;2024-03-02T12:56:27;92.32;;;43.65;;
36663;SDS011;53333;51.976;20.144;2024-03-02T12:59:00;95.85;;;42.85;;
36663;SDS011;53333;51.976;20.144;2024-03-02T13:01:33;93.32;;;45.03;;
36663;SDS011;53333;51.976;20.144;2024-03-02T13:04:06;101.13;;;45.90;;
36663;SDS011;53333;51.976;20.144;2024-03-02T13:06:42;97.25;;;45.95;;
36663;SDS011;53333;51.976;20.144;2024-03-02T13:09:15;103.55;;;48.47;;
36663;SDS011;53333;51.976;20.144;2024-03-02T13:14:23;102.00;;;42.20;;
36663;SDS011;53333;51.976;20.144;2024-03-02T13:16:58;95.65;;;45.45;;
36663;SDS011;53333;51.976;20.144;2024-03-02T13:19:31;103.32;;;46.30;;
36663;SDS011;53333;51.976;20.144;2024-03-02T13:22:04;101.53;;;44.65;;
36663;SDS011;53333;51.976;20.144;2024-03-02T13:24:37;93.65;;;42.97;;
36663;SDS011;53333;51.976;20.144;2024-03-02T13:27:15;85.82;;;42.60;;
36663;SDS011;53333;51.976;20.144;2024-03-02T13:29:50;87.57;;;41.15;;
36663;SDS011;53333;51.976;20.144;2024-03-02T13:32:24;88.93;;;43.10;;
36663;SDS011;53333;51.976;20.144;2024-03-02T13:34:57;87.68;;;41.15;;
36663;SDS011;53333;51.976;20.144;2024-03-02T13:37:30;87.30;;;44.05;;
36663;SDS011;53333;51.976;20.144;2024-03-02T13:40:03;80.60;;;40.92;;
36663;SDS011;53333;51.976;20.144;2024-03-02T13:42:38;85.03;;;41.80;;
36663;SDS011;53333;51.976;20.144;2024-03-02T13:45:12;90.57;;;42.00;;
36663;SDS011;53333;51.976;20.144;2024-03-02T13:50:18;84.85;;;40.90;;
36663;SDS011;53333;51.976;20.144;2024-03-02T13:52:51;81.75;;;40.55;;
36663;SDS011;53333;51.976;20.144;2024-03-02T13:55:24;88.53;;;42.33;;
36663;SDS011;53333;51.976;20.144;2024-03-02T13:57:58;72.05;;;35.97;;
36663;SDS011;53333;51.976;20.144;2024-03-02T14:00:32;80.10;;;39.85;;
36663;SDS011;53333;51.976;20.144;2024-03-02T14:03:05;75.60;;;38.42;;
36663;SDS011;53333;51.976;20.144;2024-03-02T14:05:39;75.45;;;37.25;;
36663;SDS011;53333;51.976;20.144;2024-03-02T14:08:12;83.68;;;39.67;;
36663;SDS011;53333;51.976;20.144;2024-03-02T14:10:45;72.55;;;39.38;;
36663;SDS011;53333;51.976;20.144;2024-03-02T14:13:19;82.88;;;41.35;;
36663;SDS011;53333;51.976;20.144;2024-03-02T14:15:54;78.65;;;40.65;;
36663;SDS011;53333;51.976;20.144;2024-03-02T14:18:27;76.70;;;39.22;;
36663;SDS011;53333;51.976;20.144;2024-03-02T14:21:00;78.95;;;40.33;;
36663;SDS011;53333;51.976;20.144;2024-03-02T14:23:35;78.13;;;38.45;;
36663;SDS011;53333;51.976;20.144;2024-03-02T14:26:08;82.93;;;41.33;;
36663;SDS011;53333;51.976;20.144;2024-03-02T14:28:42;92.95;;;42.45;;
36663;SDS011;53333;51.976;20.144;2024-03-02T14:31:22;81.88;;;40.92;;
36663;SDS011;53333;51.976;20.144;2024-03-02T14:33:55;85.78;;;43.13;;
36663;SDS011;53333;51.976;20.144;2024-03-02T14:36:28;71.63;;;38.28;;
36663;SDS011;53333;51.976;20.144;2024-03-02T14:39:01;77.40;;;37.25;;
36663;SDS011;53333;51.976;20.144;2024-03-02T14:41:35;77.38;;;41.00;;
36663;SDS011;53333;51.976;20.144;2024-03-02T14:44:10;79.13;;;41.72;;
36663;SDS011;53333;51.976;20.144;2024-03-02T14:46:43;76.25;;;37.58;;
36663;SDS011;53333;51.976;20.144;2024-03-02T14:49:18;80.85;;;42.80;;
36663;SDS011;53333;51.976;20.144;2024-03-02T14:51:51;89.30;;;41.90;;
36663;SDS011;53333;51.976;20.144;2024-03-02T14:54:25;90.10;;;47.33;;
36663;SDS011;53333;51.976;20.144;2024-03-02T14:56:57;79.80;;;42.03;;
36663;SDS011;53333;51.976;20.144;2024-03-02T14:59:35;92.45;;;44.03;;
36663;SDS011;53333;51.976;20.144;2024-03-02T15:02:08;81.25;;;40.08;;
36663;SDS011;53333;51.976;20.144;2024-03-02T15:04:41;82.43;;;42.00;;
36663;SDS011;53333;51.976;20.144;2024-03-02T15:07:16;75.65;;;38.22;;
36663;SDS011;53333;51.976;20.144;2024-03-02T15:09:49;81.35;;;40.83;;
36663;SDS011;53333;51.976;20.144;2024-03-02T15:12:22;76.93;;;38.78;;
36663;SDS011;53333;51.976;20.144;2024-03-02T15:14:57;85.50;;;38.83;;
36663;SDS011;53333;51.976;20.144;2024-03-02T15:17:34;79.00;;;40.58;;